Meriden, Connecticut
Current Conditions -  °F | °C
As of 2:53 PM on Monday 24 Nov 2014 (Local Time) from KMMK Reporting Station
Overcast Overcast  
Wind Chill: 61°   Ceiling: 500
Heat Index: 61°   Visibility: 8mi
Dew Point: 58°   Wind: 17mph
Humidity: 90%   Direction: 190°S
Pressure: 29.6"   Gusts: 24mph
Location:  41.54°N, 72.8°W
Report Text: KMMK 241953Z AUTO 19015G21KT 8SM OVC005 16/14 A2960 RMK AO2 RAB1859E05 SLP023 P0000 T01610144 TSNO
Loading
Personal Weather Stations






























Interactive Weather Map New forecast layout! Learn more

10-Day Weather Forecast

Advertisements
Track Severe Weather on mobile